sensor_id;sensor_type;location;lat;lon;timestamp;P1;durP1;ratioP1;P2;durP2;ratioP2
18580;SDS011;9420;50.876;7.012;2023-10-19T00:02:08;11.70;;;8.40;;
18580;SDS011;9420;50.876;7.012;2023-10-19T00:04:33;10.77;;;8.93;;
18580;SDS011;9420;50.876;7.012;2023-10-19T00:07:01;12.60;;;8.53;;
18580;SDS011;9420;50.876;7.012;2023-10-19T00:09:29;9.47;;;8.47;;
18580;SDS011;9420;50.876;7.012;2023-10-19T00:12:01;14.20;;;9.37;;
18580;SDS011;9420;50.876;7.012;2023-10-19T00:14:30;11.97;;;9.57;;
18580;SDS011;9420;50.876;7.012;2023-10-19T00:16:57;10.67;;;7.60;;
18580;SDS011;9420;50.876;7.012;2023-10-19T00:19:31;13.23;;;8.70;;
18580;SDS011;9420;50.876;7.012;2023-10-19T00:22:03;11.43;;;8.67;;
18580;SDS011;9420;50.876;7.012;2023-10-19T00:24:34;11.63;;;8.90;;
18580;SDS011;9420;50.876;7.012;2023-10-19T00:27:00;12.20;;;9.07;;
18580;SDS011;9420;50.876;7.012;2023-10-19T00:29:32;11.27;;;9.00;;
18580;SDS011;9420;50.876;7.012;2023-10-19T00:32:05;16.50;;;10.03;;
18580;SDS011;9420;50.876;7.012;2023-10-19T00:34:38;12.33;;;8.57;;
18580;SDS011;9420;50.876;7.012;2023-10-19T00:37:05;10.93;;;8.57;;
18580;SDS011;9420;50.876;7.012;2023-10-19T00:39:35;12.23;;;8.43;;
18580;SDS011;9420;50.876;7.012;2023-10-19T00:42:08;13.83;;;9.10;;
18580;SDS011;9420;50.876;7.012;2023-10-19T00:44:36;13.47;;;9.30;;
18580;SDS011;9420;50.876;7.012;2023-10-19T00:47:07;14.00;;;9.63;;
18580;SDS011;9420;50.876;7.012;2023-10-19T00:49:38;12.40;;;9.57;;
18580;SDS011;9420;50.876;7.012;2023-10-19T00:52:05;10.63;;;9.13;;
18580;SDS011;9420;50.876;7.012;2023-10-19T00:54:38;10.43;;;8.83;;
18580;SDS011;9420;50.876;7.012;2023-10-19T00:57:12;13.93;;;9.53;;
18580;SDS011;9420;50.876;7.012;2023-10-19T00:59:41;11.87;;;9.30;;
18580;SDS011;9420;50.876;7.012;2023-10-19T01:02:13;14.37;;;11.00;;
18580;SDS011;9420;50.876;7.012;2023-10-19T01:04:43;13.20;;;10.37;;
18580;SDS011;9420;50.876;7.012;2023-10-19T01:07:15;14.13;;;10.57;;
18580;SDS011;9420;50.876;7.012;2023-10-19T01:09:47;13.83;;;9.53;;
18580;SDS011;9420;50.876;7.012;2023-10-19T01:12:18;13.17;;;9.70;;
18580;SDS011;9420;50.876;7.012;2023-10-19T01:15:04;12.67;;;9.57;;
18580;SDS011;9420;50.876;7.012;2023-10-19T01:17:34;11.73;;;8.90;;
18580;SDS011;9420;50.876;7.012;2023-10-19T01:20:06;11.20;;;9.13;;
18580;SDS011;9420;50.876;7.012;2023-10-19T01:22:49;11.97;;;9.57;;
18580;SDS011;9420;50.876;7.012;2023-10-19T01:25:19;13.00;;;9.80;;
18580;SDS011;9420;50.876;7.012;2023-10-19T01:27:52;14.17;;;10.80;;
18580;SDS011;9420;50.876;7.012;2023-10-19T01:30:23;12.73;;;9.73;;
18580;SDS011;9420;50.876;7.012;2023-10-19T01:32:52;12.43;;;9.47;;
18580;SDS011;9420;50.876;7.012;2023-10-19T01:35:18;12.03;;;9.73;;
18580;SDS011;9420;50.876;7.012;2023-10-19T01:37:45;11.07;;;9.20;;
18580;SDS011;9420;50.876;7.012;2023-10-19T01:40:12;12.13;;;9.37;;
18580;SDS011;9420;50.876;7.012;2023-10-19T01:42:45;12.30;;;9.63;;
18580;SDS011;9420;50.876;7.012;2023-10-19T01:45:11;16.63;;;10.80;;
18580;SDS011;9420;50.876;7.012;2023-10-19T01:47:37;13.63;;;9.77;;
18580;SDS011;9420;50.876;7.012;2023-10-19T01:50:06;15.47;;;10.77;;
18580;SDS011;9420;50.876;7.012;2023-10-19T01:52:45;12.17;;;10.13;;
18580;SDS011;9420;50.876;7.012;2023-10-19T01:55:10;12.20;;;10.07;;
18580;SDS011;9420;50.876;7.012;2023-10-19T01:57:39;11.20;;;9.23;;
18580;SDS011;9420;50.876;7.012;2023-10-19T02:00:06;13.93;;;9.50;;
18580;SDS011;9420;50.876;7.012;2023-10-19T02:02:36;11.37;;;9.50;;
18580;SDS011;9420;50.876;7.012;2023-10-19T02:05:02;13.50;;;10.53;;
18580;SDS011;9420;50.876;7.012;2023-10-19T02:07:38;15.53;;;10.27;;
18580;SDS011;9420;50.876;7.012;2023-10-19T02:10:04;12.77;;;9.87;;
18580;SDS011;9420;50.876;7.012;2023-10-19T02:12:37;14.00;;;10.03;;
18580;SDS011;9420;50.876;7.012;2023-10-19T02:15:03;16.37;;;10.03;;
18580;SDS011;9420;50.876;7.012;2023-10-19T02:17:30;12.03;;;9.37;;
18580;SDS011;9420;50.876;7.012;2023-10-19T02:19:56;11.40;;;9.40;;
18580;SDS011;9420;50.876;7.012;2023-10-19T02:22:23;12.87;;;9.00;;
18580;SDS011;9420;50.876;7.012;2023-10-19T02:24:49;10.73;;;9.20;;
18580;SDS011;9420;50.876;7.012;2023-10-19T02:27:15;10.77;;;9.33;;
18580;SDS011;9420;50.876;7.012;2023-10-19T02:29:43;18.10;;;10.07;;
18580;SDS011;9420;50.876;7.012;2023-10-19T02:32:09;13.37;;;9.23;;
18580;SDS011;9420;50.876;7.012;2023-10-19T02:34:36;11.20;;;8.67;;
18580;SDS011;9420;50.876;7.012;2023-10-19T02:37:01;11.43;;;9.03;;
18580;SDS011;9420;50.876;7.012;2023-10-19T02:39:28;9.30;;;8.30;;
18580;SDS011;9420;50.876;7.012;2023-10-19T02:41:54;12.60;;;9.90;;
18580;SDS011;9420;50.876;7.012;2023-10-19T02:44:21;11.43;;;8.90;;
18580;SDS011;9420;50.876;7.012;2023-10-19T02:46:49;14.60;;;9.37;;
18580;SDS011;9420;50.876;7.012;2023-10-19T02:49:19;11.13;;;9.03;;
18580;SDS011;9420;50.876;7.012;2023-10-19T02:51:46;13.80;;;9.13;;
18580;SDS011;9420;50.876;7.012;2023-10-19T02:54:15;10.30;;;8.30;;
18580;SDS011;9420;50.876;7.012;2023-10-19T02:56:43;12.00;;;9.33;;
18580;SDS011;9420;50.876;7.012;2023-10-19T02:59:12;11.17;;;8.80;;
18580;SDS011;9420;50.876;7.012;2023-10-19T03:01:41;14.10;;;9.87;;
18580;SDS011;9420;50.876;7.012;2023-10-19T03:04:10;11.30;;;9.53;;
18580;SDS011;9420;50.876;7.012;2023-10-19T03:06:37;12.60;;;9.73;;
18580;SDS011;9420;50.876;7.012;2023-10-19T03:09:06;12.53;;;8.30;;
18580;SDS011;9420;50.876;7.012;2023-10-19T03:11:38;13.47;;;9.43;;
18580;SDS011;9420;50.876;7.012;2023-10-19T03:14:06;12.20;;;8.27;;
18580;SDS011;9420;50.876;7.012;2023-10-19T03:16:33;11.13;;;9.37;;
18580;SDS011;9420;50.876;7.012;2023-10-19T03:19:01;11.40;;;8.90;;
18580;SDS011;9420;50.876;7.012;2023-10-19T03:21:28;12.40;;;9.53;;
18580;SDS011;9420;50.876;7.012;2023-10-19T03:23:58;11.97;;;8.50;;
18580;SDS011;9420;50.876;7.012;2023-10-19T03:26:26;13.07;;;9.20;;
18580;SDS011;9420;50.876;7.012;2023-10-19T03:29:01;13.23;;;9.00;;
18580;SDS011;9420;50.876;7.012;2023-10-19T03:31:28;13.17;;;7.67;;
18580;SDS011;9420;50.876;7.012;2023-10-19T03:33:55;13.03;;;9.00;;
18580;SDS011;9420;50.876;7.012;2023-10-19T03:36:24;10.57;;;7.73;;
18580;SDS011;9420;50.876;7.012;2023-10-19T03:38:53;14.23;;;8.53;;
18580;SDS011;9420;50.876;7.012;2023-10-19T03:41:24;11.27;;;8.43;;
18580;SDS011;9420;50.876;7.012;2023-10-19T03:43:56;12.97;;;8.53;;
18580;SDS011;9420;50.876;7.012;2023-10-19T03:46:23;12.10;;;8.77;;
18580;SDS011;9420;50.876;7.012;2023-10-19T03:48:54;10.43;;;8.43;;
18580;SDS011;9420;50.876;7.012;2023-10-19T03:51:24;11.67;;;8.23;;
18580;SDS011;9420;50.876;7.012;2023-10-19T03:53:53;13.00;;;9.13;;
18580;SDS011;9420;50.876;7.012;2023-10-19T03:56:26;14.03;;;9.53;;
18580;SDS011;9420;50.876;7.012;2023-10-19T03:58:57;11.87;;;9.23;;
18580;SDS011;9420;50.876;7.012;2023-10-19T04:01:25;13.57;;;9.07;;
18580;SDS011;9420;50.876;7.012;2023-10-19T04:03:52;13.60;;;9.27;;
18580;SDS011;9420;50.876;7.012;2023-10-19T04:06:20;17.93;;;9.80;;
18580;SDS011;9420;50.876;7.012;2023-10-19T04:08:47;13.93;;;9.33;;
18580;SDS011;9420;50.876;7.012;2023-10-19T04:11:17;11.37;;;8.50;;
18580;SDS011;9420;50.876;7.012;2023-10-19T04:13:57;16.00;;;9.70;;
18580;SDS011;9420;50.876;7.012;2023-10-19T04:16:28;13.20;;;9.53;;
18580;SDS011;9420;50.876;7.012;2023-10-19T04:18:55;16.60;;;9.73;;
18580;SDS011;9420;50.876;7.012;2023-10-19T04:21:23;14.27;;;9.23;;
18580;SDS011;9420;50.876;7.012;2023-10-19T04:23:50;11.93;;;9.43;;
18580;SDS011;9420;50.876;7.012;2023-10-19T04:26:18;14.33;;;10.03;;
18580;SDS011;9420;50.876;7.012;2023-10-19T04:28:44;12.60;;;9.53;;
18580;SDS011;9420;50.876;7.012;2023-10-19T04:31:14;11.83;;;10.17;;
18580;SDS011;9420;50.876;7.012;2023-10-19T04:33:41;12.00;;;8.90;;
18580;SDS011;9420;50.876;7.012;2023-10-19T04:36:11;12.23;;;10.43;;
18580;SDS011;9420;50.876;7.012;2023-10-19T04:38:39;12.53;;;8.93;;
18580;SDS011;9420;50.876;7.012;2023-10-19T04:41:06;12.87;;;8.70;;
18580;SDS011;9420;50.876;7.012;2023-10-19T04:43:35;11.70;;;9.17;;
18580;SDS011;9420;50.876;7.012;2023-10-19T04:46:08;13.33;;;8.53;;
18580;SDS011;9420;50.876;7.012;2023-10-19T04:48:37;12.13;;;9.00;;
18580;SDS011;9420;50.876;7.012;2023-10-19T04:51:06;13.80;;;9.00;;
18580;SDS011;9420;50.876;7.012;2023-10-19T04:53:34;15.70;;;9.80;;
18580;SDS011;9420;50.876;7.012;2023-10-19T04:56:02;14.23;;;9.57;;
18580;SDS011;9420;50.876;7.012;2023-10-19T04:58:29;12.10;;;8.17;;
18580;SDS011;9420;50.876;7.012;2023-10-19T05:00:57;11.53;;;8.93;;
18580;SDS011;9420;50.876;7.012;2023-10-19T05:03:24;11.67;;;8.87;;
18580;SDS011;9420;50.876;7.012;2023-10-19T05:05:53;13.00;;;8.73;;
18580;SDS011;9420;50.876;7.012;2023-10-19T05:08:21;12.60;;;9.00;;
18580;SDS011;9420;50.876;7.012;2023-10-19T05:10:50;14.27;;;9.73;;
18580;SDS011;9420;50.876;7.012;2023-10-19T05:13:18;13.90;;;10.17;;
18580;SDS011;9420;50.876;7.012;2023-10-19T05:15:45;13.10;;;8.73;;
18580;SDS011;9420;50.876;7.012;2023-10-19T05:18:13;14.57;;;9.00;;
18580;SDS011;9420;50.876;7.012;2023-10-19T05:20:40;12.77;;;8.67;;
18580;SDS011;9420;50.876;7.012;2023-10-19T05:23:06;12.13;;;7.60;;
18580;SDS011;9420;50.876;7.012;2023-10-19T05:25:34;13.37;;;9.47;;
18580;SDS011;9420;50.876;7.012;2023-10-19T05:28:02;12.63;;;8.37;;
18580;SDS011;9420;50.876;7.012;2023-10-19T05:30:29;12.50;;;8.57;;
18580;SDS011;9420;50.876;7.012;2023-10-19T05:32:57;17.30;;;8.57;;
18580;SDS011;9420;50.876;7.012;2023-10-19T05:35:25;11.50;;;9.10;;
18580;SDS011;9420;50.876;7.012;2023-10-19T05:37:52;17.27;;;9.83;;
18580;SDS011;9420;50.876;7.012;2023-10-19T05:40:19;13.30;;;9.73;;
18580;SDS011;9420;50.876;7.012;2023-10-19T05:42:47;14.63;;;9.13;;
18580;SDS011;9420;50.876;7.012;2023-10-19T05:45:14;14.73;;;8.77;;
18580;SDS011;9420;50.876;7.012;2023-10-19T05:47:41;12.73;;;9.37;;
18580;SDS011;9420;50.876;7.012;2023-10-19T05:50:09;17.20;;;10.17;;
18580;SDS011;9420;50.876;7.012;2023-10-19T05:52:40;13.67;;;9.30;;
18580;SDS011;9420;50.876;7.012;2023-10-19T05:55:08;13.87;;;9.33;;
18580;SDS011;9420;50.876;7.012;2023-10-19T05:57:36;13.87;;;8.90;;
18580;SDS011;9420;50.876;7.012;2023-10-19T06:00:06;16.73;;;9.17;;
18580;SDS011;9420;50.876;7.012;2023-10-19T06:02:38;15.80;;;9.63;;
18580;SDS011;9420;50.876;7.012;2023-10-19T06:05:05;14.60;;;9.87;;
18580;SDS011;9420;50.876;7.012;2023-10-19T06:07:32;12.83;;;9.30;;
18580;SDS011;9420;50.876;7.012;2023-10-19T06:10:00;14.50;;;8.83;;
18580;SDS011;9420;50.876;7.012;2023-10-19T06:12:30;14.67;;;9.83;;
18580;SDS011;9420;50.876;7.012;2023-10-19T06:14:57;21.37;;;10.80;;
18580;SDS011;9420;50.876;7.012;2023-10-19T06:17:25;16.50;;;10.23;;
18580;SDS011;9420;50.876;7.012;2023-10-19T06:19:52;12.87;;;9.27;;
18580;SDS011;9420;50.876;7.012;2023-10-19T06:22:18;14.60;;;10.17;;
18580;SDS011;9420;50.876;7.012;2023-10-19T06:24:45;12.23;;;8.93;;
18580;SDS011;9420;50.876;7.012;2023-10-19T06:27:13;12.13;;;10.20;;
18580;SDS011;9420;50.876;7.012;2023-10-19T06:29:39;13.40;;;9.27;;
18580;SDS011;9420;50.876;7.012;2023-10-19T06:32:06;13.90;;;10.30;;
18580;SDS011;9420;50.876;7.012;2023-10-19T06:34:32;13.13;;;10.03;;
18580;SDS011;9420;50.876;7.012;2023-10-19T06:37:00;16.00;;;11.57;;
18580;SDS011;9420;50.876;7.012;2023-10-19T06:39:28;14.20;;;10.43;;
18580;SDS011;9420;50.876;7.012;2023-10-19T06:41:55;14.63;;;11.13;;
18580;SDS011;9420;50.876;7.012;2023-10-19T06:44:24;16.33;;;10.83;;
18580;SDS011;9420;50.876;7.012;2023-10-19T06:46:50;11.63;;;10.03;;
18580;SDS011;9420;50.876;7.012;2023-10-19T06:49:17;16.83;;;10.47;;
18580;SDS011;9420;50.876;7.012;2023-10-19T06:51:44;11.23;;;9.73;;
18580;SDS011;9420;50.876;7.012;2023-10-19T06:54:11;15.53;;;10.33;;
18580;SDS011;9420;50.876;7.012;2023-10-19T06:56:38;17.13;;;10.33;;
18580;SDS011;9420;50.876;7.012;2023-10-19T06:59:06;13.20;;;11.37;;
18580;SDS011;9420;50.876;7.012;2023-10-19T07:01:34;15.90;;;10.60;;
18580;SDS011;9420;50.876;7.012;2023-10-19T07:04:01;15.60;;;11.10;;
18580;SDS011;9420;50.876;7.012;2023-10-19T07:06:28;21.17;;;10.67;;
18580;SDS011;9420;50.876;7.012;2023-10-19T07:08:55;23.80;;;12.03;;
18580;SDS011;9420;50.876;7.012;2023-10-19T07:11:23;13.63;;;10.73;;
18580;SDS011;9420;50.876;7.012;2023-10-19T07:13:49;14.77;;;10.83;;
18580;SDS011;9420;50.876;7.012;2023-10-19T07:16:16;13.47;;;10.50;;
18580;SDS011;9420;50.876;7.012;2023-10-19T07:18:47;18.13;;;11.77;;
18580;SDS011;9420;50.876;7.012;2023-10-19T07:21:14;15.10;;;11.00;;
18580;SDS011;9420;50.876;7.012;2023-10-19T07:23:42;25.37;;;11.77;;
18580;SDS011;9420;50.876;7.012;2023-10-19T07:26:10;14.07;;;10.30;;
18580;SDS011;9420;50.876;7.012;2023-10-19T07:28:39;13.60;;;10.30;;
18580;SDS011;9420;50.876;7.012;2023-10-19T07:31:05;16.03;;;10.63;;
18580;SDS011;9420;50.876;7.012;2023-10-19T07:33:37;16.40;;;10.00;;
18580;SDS011;9420;50.876;7.012;2023-10-19T07:36:13;16.23;;;10.80;;
18580;SDS011;9420;50.876;7.012;2023-10-19T07:38:40;14.97;;;10.07;;
18580;SDS011;9420;50.876;7.012;2023-10-19T07:41:07;14.87;;;9.73;;
18580;SDS011;9420;50.876;7.012;2023-10-19T07:43:34;13.03;;;9.50;;
18580;SDS011;9420;50.876;7.012;2023-10-19T07:46:01;16.93;;;10.40;;
18580;SDS011;9420;50.876;7.012;2023-10-19T07:48:28;15.77;;;9.87;;
18580;SDS011;9420;50.876;7.012;2023-10-19T07:50:54;14.03;;;9.37;;
18580;SDS011;9420;50.876;7.012;2023-10-19T07:53:23;11.20;;;9.43;;
18580;SDS011;9420;50.876;7.012;2023-10-19T07:55:50;16.43;;;9.57;;
18580;SDS011;9420;50.876;7.012;2023-10-19T07:58:17;12.90;;;8.90;;
18580;SDS011;9420;50.876;7.012;2023-10-19T08:00:44;11.10;;;9.23;;
18580;SDS011;9420;50.876;7.012;2023-10-19T08:03:12;15.00;;;9.23;;
18580;SDS011;9420;50.876;7.012;2023-10-19T08:05:41;12.03;;;8.50;;
18580;SDS011;9420;50.876;7.012;2023-10-19T08:08:07;11.37;;;8.03;;
18580;SDS011;9420;50.876;7.012;2023-10-19T08:10:36;11.77;;;7.80;;
18580;SDS011;9420;50.876;7.012;2023-10-19T08:13:02;13.23;;;8.23;;
18580;SDS011;9420;50.876;7.012;2023-10-19T08:15:29;14.07;;;7.53;;
18580;SDS011;9420;50.876;7.012;2023-10-19T08:17:56;11.23;;;7.97;;
18580;SDS011;9420;50.876;7.012;2023-10-19T08:20:23;11.93;;;7.77;;
18580;SDS011;9420;50.876;7.012;2023-10-19T08:22:52;8.97;;;7.57;;
18580;SDS011;9420;50.876;7.012;2023-10-19T08:25:22;7.67;;;5.53;;
18580;SDS011;9420;50.876;7.012;2023-10-19T08:27:50;9.17;;;6.33;;
18580;SDS011;9420;50.876;7.012;2023-10-19T08:30:19;10.97;;;6.27;;
18580;SDS011;9420;50.876;7.012;2023-10-19T08:32:47;8.53;;;5.67;;
18580;SDS011;9420;50.876;7.012;2023-10-19T08:35:14;8.23;;;5.13;;
18580;SDS011;9420;50.876;7.012;2023-10-19T08:37:43;8.83;;;6.13;;
18580;SDS011;9420;50.876;7.012;2023-10-19T08:40:11;7.87;;;5.53;;
18580;SDS011;9420;50.876;7.012;2023-10-19T08:42:40;7.90;;;5.47;;
18580;SDS011;9420;50.876;7.012;2023-10-19T08:45:08;10.20;;;6.73;;
18580;SDS011;9420;50.876;7.012;2023-10-19T08:47:37;9.40;;;6.63;;
18580;SDS011;9420;50.876;7.012;2023-10-19T08:50:12;8.57;;;5.37;;
18580;SDS011;9420;50.876;7.012;2023-10-19T08:52:40;10.23;;;5.83;;
18580;SDS011;9420;50.876;7.012;2023-10-19T08:55:08;5.73;;;4.97;;
18580;SDS011;9420;50.876;7.012;2023-10-19T08:57:38;10.97;;;6.20;;
18580;SDS011;9420;50.876;7.012;2023-10-19T09:00:06;12.43;;;7.27;;
18580;SDS011;9420;50.876;7.012;2023-10-19T09:02:35;8.00;;;5.50;;
18580;SDS011;9420;50.876;7.012;2023-10-19T09:05:05;7.93;;;4.40;;
18580;SDS011;9420;50.876;7.012;2023-10-19T09:07:32;10.03;;;5.40;;
18580;SDS011;9420;50.876;7.012;2023-10-19T09:09:59;8.47;;;5.13;;
18580;SDS011;9420;50.876;7.012;2023-10-19T09:12:30;6.23;;;4.30;;
18580;SDS011;9420;50.876;7.012;2023-10-19T09:14:57;13.67;;;5.33;;
18580;SDS011;9420;50.876;7.012;2023-10-19T09:17:28;8.50;;;3.10;;
18580;SDS011;9420;50.876;7.012;2023-10-19T09:19:57;6.73;;;3.87;;
18580;SDS011;9420;50.876;7.012;2023-10-19T09:22:32;8.40;;;3.73;;
18580;SDS011;9420;50.876;7.012;2023-10-19T09:25:09;7.63;;;3.77;;
18580;SDS011;9420;50.876;7.012;2023-10-19T09:27:36;8.40;;;3.70;;
18580;SDS011;9420;50.876;7.012;2023-10-19T09:30:03;6.60;;;3.30;;
18580;SDS011;9420;50.876;7.012;2023-10-19T09:32:35;8.40;;;3.67;;
18580;SDS011;9420;50.876;7.012;2023-10-19T09:35:04;6.73;;;3.40;;
18580;SDS011;9420;50.876;7.012;2023-10-19T09:37:34;6.40;;;3.20;;
18580;SDS011;9420;50.876;7.012;2023-10-19T09:40:01;7.47;;;3.80;;
18580;SDS011;9420;50.876;7.012;2023-10-19T09:42:27;7.40;;;3.23;;
18580;SDS011;9420;50.876;7.012;2023-10-19T09:44:55;6.17;;;2.67;;
18580;SDS011;9420;50.876;7.012;2023-10-19T09:47:30;5.40;;;2.53;;
18580;SDS011;9420;50.876;7.012;2023-10-19T09:50:08;7.70;;;3.07;;
18580;SDS011;9420;50.876;7.012;2023-10-19T09:52:36;6.63;;;2.47;;
18580;SDS011;9420;50.876;7.012;2023-10-19T09:55:06;4.67;;;2.47;;
18580;SDS011;9420;50.876;7.012;2023-10-19T09:57:37;10.47;;;2.73;;
18580;SDS011;9420;50.876;7.012;2023-10-19T10:00:12;7.43;;;3.07;;
18580;SDS011;9420;50.876;7.012;2023-10-19T10:02:40;9.83;;;2.70;;
18580;SDS011;9420;50.876;7.012;2023-10-19T10:08:27;6.27;;;2.43;;
18580;SDS011;9420;50.876;7.012;2023-10-19T10:10:56;5.70;;;1.57;;
18580;SDS011;9420;50.876;7.012;2023-10-19T10:13:38;8.00;;;2.37;;
18580;SDS011;9420;50.876;7.012;2023-10-19T10:16:06;5.37;;;1.80;;
18580;SDS011;9420;50.876;7.012;2023-10-19T10:18:35;5.63;;;1.87;;
18580;SDS011;9420;50.876;7.012;2023-10-19T10:21:05;5.67;;;1.80;;
18580;SDS011;9420;50.876;7.012;2023-10-19T10:23:35;7.67;;;1.80;;
18580;SDS011;9420;50.876;7.012;2023-10-19T10:26:07;7.27;;;2.10;;
18580;SDS011;9420;50.876;7.012;2023-10-19T10:28:35;7.60;;;2.33;;
18580;SDS011;9420;50.876;7.012;2023-10-19T10:31:12;10.80;;;2.47;;
18580;SDS011;9420;50.876;7.012;2023-10-19T10:33:42;7.67;;;1.67;;
18580;SDS011;9420;50.876;7.012;2023-10-19T10:36:11;6.90;;;2.30;;
18580;SDS011;9420;50.876;7.012;2023-10-19T10:38:39;8.63;;;2.33;;
18580;SDS011;9420;50.876;7.012;2023-10-19T10:41:05;9.67;;;2.40;;
18580;SDS011;9420;50.876;7.012;2023-10-19T10:43:47;5.93;;;2.47;;
18580;SDS011;9420;50.876;7.012;2023-10-19T10:46:18;6.00;;;1.73;;
18580;SDS011;9420;50.876;7.012;2023-10-19T10:48:47;4.40;;;1.50;;
18580;SDS011;9420;50.876;7.012;2023-10-19T10:51:15;3.73;;;1.20;;
18580;SDS011;9420;50.876;7.012;2023-10-19T10:53:48;9.70;;;2.00;;
18580;SDS011;9420;50.876;7.012;2023-10-19T10:56:16;5.30;;;1.93;;
18580;SDS011;9420;50.876;7.012;2023-10-19T10:58:44;9.30;;;1.83;;
18580;SDS011;9420;50.876;7.012;2023-10-19T11:01:11;9.90;;;1.40;;
18580;SDS011;9420;50.876;7.012;2023-10-19T11:03:39;8.20;;;2.17;;
18580;SDS011;9420;50.876;7.012;2023-10-19T11:06:07;10.90;;;1.40;;
18580;SDS011;9420;50.876;7.012;2023-10-19T11:08:34;6.23;;;1.70;;
18580;SDS011;9420;50.876;7.012;2023-10-19T11:11:02;9.27;;;1.77;;
18580;SDS011;9420;50.876;7.012;2023-10-19T11:13:31;6.37;;;1.60;;
18580;SDS011;9420;50.876;7.012;2023-10-19T11:16:03;6.73;;;1.63;;
18580;SDS011;9420;50.876;7.012;2023-10-19T11:18:31;5.93;;;1.83;;
18580;SDS011;9420;50.876;7.012;2023-10-19T11:21:00;6.67;;;2.13;;
18580;SDS011;9420;50.876;7.012;2023-10-19T11:23:42;6.50;;;1.77;;
18580;SDS011;9420;50.876;7.012;2023-10-19T11:26:10;5.97;;;1.87;;
18580;SDS011;9420;50.876;7.012;2023-10-19T11:28:38;5.37;;;1.70;;
18580;SDS011;9420;50.876;7.012;2023-10-19T11:31:18;8.03;;;1.63;;
18580;SDS011;9420;50.876;7.012;2023-10-19T11:33:47;6.87;;;1.97;;
18580;SDS011;9420;50.876;7.012;2023-10-19T11:36:14;10.80;;;1.97;;
18580;SDS011;9420;50.876;7.012;2023-10-19T11:38:45;6.37;;;1.87;;
18580;SDS011;9420;50.876;7.012;2023-10-19T11:41:13;7.63;;;1.63;;
18580;SDS011;9420;50.876;7.012;2023-10-19T11:43:41;6.80;;;2.33;;
18580;SDS011;9420;50.876;7.012;2023-10-19T11:46:11;8.83;;;2.33;;
18580;SDS011;9420;50.876;7.012;2023-10-19T11:48:39;5.33;;;1.67;;
18580;SDS011;9420;50.876;7.012;2023-10-19T11:51:07;4.60;;;1.97;;
18580;SDS011;9420;50.876;7.012;2023-10-19T11:53:36;5.37;;;1.70;;
18580;SDS011;9420;50.876;7.012;2023-10-19T11:56:07;6.13;;;1.53;;
18580;SDS011;9420;50.876;7.012;2023-10-19T11:58:34;11.00;;;2.73;;
18580;SDS011;9420;50.876;7.012;2023-10-19T12:01:03;7.53;;;2.17;;
18580;SDS011;9420;50.876;7.012;2023-10-19T12:03:33;9.67;;;2.17;;
18580;SDS011;9420;50.876;7.012;2023-10-19T12:06:02;6.30;;;2.20;;
18580;SDS011;9420;50.876;7.012;2023-10-19T12:08:31;8.50;;;1.77;;
18580;SDS011;9420;50.876;7.012;2023-10-19T12:10:58;6.90;;;2.07;;
18580;SDS011;9420;50.876;7.012;2023-10-19T12:13:28;11.20;;;2.10;;
18580;SDS011;9420;50.876;7.012;2023-10-19T12:15:54;6.37;;;1.43;;
18580;SDS011;9420;50.876;7.012;2023-10-19T12:18:21;4.90;;;1.57;;
18580;SDS011;9420;50.876;7.012;2023-10-19T12:20:48;7.07;;;1.77;;
18580;SDS011;9420;50.876;7.012;2023-10-19T12:23:14;10.80;;;2.17;;
18580;SDS011;9420;50.876;7.012;2023-10-19T12:25:41;10.73;;;2.37;;
18580;SDS011;9420;50.876;7.012;2023-10-19T12:28:08;6.77;;;1.80;;
18580;SDS011;9420;50.876;7.012;2023-10-19T12:30:40;8.13;;;1.87;;
18580;SDS011;9420;50.876;7.012;2023-10-19T12:33:07;4.53;;;1.93;;
18580;SDS011;9420;50.876;7.012;2023-10-19T12:35:36;9.23;;;1.73;;
18580;SDS011;9420;50.876;7.012;2023-10-19T12:38:10;7.97;;;1.50;;
18580;SDS011;9420;50.876;7.012;2023-10-19T12:40:42;13.90;;;2.37;;
18580;SDS011;9420;50.876;7.012;2023-10-19T12:43:09;9.07;;;2.27;;
18580;SDS011;9420;50.876;7.012;2023-10-19T12:45:37;8.87;;;2.00;;
18580;SDS011;9420;50.876;7.012;2023-10-19T12:48:06;10.17;;;2.70;;
18580;SDS011;9420;50.876;7.012;2023-10-19T12:50:35;6.97;;;1.80;;
18580;SDS011;9420;50.876;7.012;2023-10-19T12:53:02;8.30;;;1.90;;
18580;SDS011;9420;50.876;7.012;2023-10-19T12:55:29;6.70;;;2.20;;
18580;SDS011;9420;50.876;7.012;2023-10-19T12:57:57;12.93;;;2.87;;
18580;SDS011;9420;50.876;7.012;2023-10-19T13:00:31;4.87;;;1.57;;
18580;SDS011;9420;50.876;7.012;2023-10-19T13:03:01;7.03;;;1.80;;
18580;SDS011;9420;50.876;7.012;2023-10-19T13:05:33;9.17;;;2.67;;
18580;SDS011;9420;50.876;7.012;2023-10-19T13:08:00;12.37;;;3.17;;
18580;SDS011;9420;50.876;7.012;2023-10-19T13:10:29;10.67;;;2.30;;
18580;SDS011;9420;50.876;7.012;2023-10-19T13:12:58;10.40;;;2.53;;
18580;SDS011;9420;50.876;7.012;2023-10-19T13:15:28;8.07;;;3.03;;
18580;SDS011;9420;50.876;7.012;2023-10-19T13:17:56;7.73;;;1.77;;
18580;SDS011;9420;50.876;7.012;2023-10-19T13:20:24;10.73;;;3.57;;
18580;SDS011;9420;50.876;7.012;2023-10-19T13:22:52;9.37;;;2.43;;
18580;SDS011;9420;50.876;7.012;2023-10-19T13:25:21;13.13;;;2.37;;
18580;SDS011;9420;50.876;7.012;2023-10-19T13:28:04;8.67;;;2.50;;
18580;SDS011;9420;50.876;7.012;2023-10-19T13:30:35;9.00;;;2.93;;
18580;SDS011;9420;50.876;7.012;2023-10-19T13:33:03;10.97;;;3.40;;
18580;SDS011;9420;50.876;7.012;2023-10-19T13:35:31;7.43;;;2.27;;
18580;SDS011;9420;50.876;7.012;2023-10-19T13:38:00;13.00;;;3.30;;
18580;SDS011;9420;50.876;7.012;2023-10-19T13:40:26;12.27;;;3.30;;
18580;SDS011;9420;50.876;7.012;2023-10-19T13:42:56;11.77;;;3.10;;
18580;SDS011;9420;50.876;7.012;2023-10-19T13:45:22;12.93;;;3.23;;
18580;SDS011;9420;50.876;7.012;2023-10-19T13:47:49;8.57;;;2.80;;
18580;SDS011;9420;50.876;7.012;2023-10-19T13:50:19;8.50;;;2.73;;
18580;SDS011;9420;50.876;7.012;2023-10-19T13:52:48;9.47;;;3.17;;
18580;SDS011;9420;50.876;7.012;2023-10-19T13:55:17;9.50;;;3.33;;
18580;SDS011;9420;50.876;7.012;2023-10-19T13:57:45;11.47;;;2.83;;
18580;SDS011;9420;50.876;7.012;2023-10-19T14:00:13;13.27;;;2.67;;
18580;SDS011;9420;50.876;7.012;2023-10-19T14:02:45;8.63;;;2.67;;
18580;SDS011;9420;50.876;7.012;2023-10-19T14:05:12;9.97;;;3.33;;
18580;SDS011;9420;50.876;7.012;2023-10-19T14:07:39;11.27;;;3.53;;
18580;SDS011;9420;50.876;7.012;2023-10-19T14:10:06;15.20;;;2.87;;
18580;SDS011;9420;50.876;7.012;2023-10-19T14:12:35;6.23;;;2.37;;
18580;SDS011;9420;50.876;7.012;2023-10-19T14:15:03;10.13;;;3.30;;
18580;SDS011;9420;50.876;7.012;2023-10-19T14:17:31;14.50;;;4.03;;
18580;SDS011;9420;50.876;7.012;2023-10-19T14:19:57;9.27;;;3.50;;
18580;SDS011;9420;50.876;7.012;2023-10-19T14:22:24;15.00;;;4.00;;
18580;SDS011;9420;50.876;7.012;2023-10-19T14:24:51;10.03;;;3.83;;
18580;SDS011;9420;50.876;7.012;2023-10-19T14:27:18;12.20;;;4.03;;
18580;SDS011;9420;50.876;7.012;2023-10-19T14:29:47;13.47;;;4.67;;
18580;SDS011;9420;50.876;7.012;2023-10-19T14:32:15;11.90;;;3.33;;
18580;SDS011;9420;50.876;7.012;2023-10-19T14:34:41;12.83;;;4.20;;
18580;SDS011;9420;50.876;7.012;2023-10-19T14:37:08;12.07;;;3.43;;
18580;SDS011;9420;50.876;7.012;2023-10-19T14:39:35;12.63;;;3.67;;
18580;SDS011;9420;50.876;7.012;2023-10-19T14:42:01;6.50;;;3.50;;
18580;SDS011;9420;50.876;7.012;2023-10-19T14:44:28;13.53;;;3.60;;
18580;SDS011;9420;50.876;7.012;2023-10-19T14:46:56;11.43;;;3.53;;
18580;SDS011;9420;50.876;7.012;2023-10-19T14:49:22;12.33;;;3.50;;
18580;SDS011;9420;50.876;7.012;2023-10-19T14:51:49;8.80;;;3.60;;
18580;SDS011;9420;50.876;7.012;2023-10-19T14:54:16;14.53;;;3.37;;
18580;SDS011;9420;50.876;7.012;2023-10-19T14:56:42;10.03;;;3.53;;
18580;SDS011;9420;50.876;7.012;2023-10-19T14:59:09;9.23;;;3.63;;
18580;SDS011;9420;50.876;7.012;2023-10-19T15:01:36;10.37;;;3.90;;
18580;SDS011;9420;50.876;7.012;2023-10-19T15:04:04;8.33;;;3.20;;